Latest METARs, TAFs and NOTAMs for ETSI


---------------------------------------------------------------------------
	(OBSERVATIONS)
ETSI 230520Z 25006KT 9999 BKN045 08/06 Q1021 BLU BLU=
ETSI 230420Z 27006KT 9999 BKN045 08/06 Q1020 BLU BLU=
ETSI 230322Z 27007KT 9999 BKN045 07/06 Q1020 BLU=
ETSI 230320Z 27007KT 9999 BKN045 07/06 Q1020 BLU=
---------------------------------------------------------------------------
	(FC)
TAF ETSI 230425Z 2305/2314 27007KT 9999 NSW SCT020 BKN040=
---------------------------------------------------------------------------
	(TERMINAL AREA FORECAST)
ETSI 230425Z 2305/2314 27007KT 9999 NSW SCT020 BKN040=
---------------------------------------------------------------------------
	(NOTAMS)


ETSI E1089/14 SPECIAL ACTIVITY AREA ESTABLISHED FOR GLIDER AEROBATICS
    RADIUS 3NM CENTERED AT 4842N 01132E INGOLSTADT/MANCHING AIRFIELD.
    GND - 6000FT AMSL, SAT-SUN 0700-SS, AUG 15 AND OCT 03 0700-SS,
    27 JUL 07:00 2014 UNTIL 25 OCT 16:07 2014. CREATED: 07 MAY
    08:22 2014

ETSI E1091/14 SPECIAL ACTIVITY AREA ESTABLISHED FOR GLIDER AEROBATICS
    RADIUS 3NM CENTERED AT 4842N 01132E INGOLSTADT/MANCHING AIRFIELD.
    GND - 6000FT AMSL, SAT-SUN 0700-SS, DEC 25 26 0700-SS, 26
    OCT 07:00 2014 UNTIL 28 DEC 15:14 2014. CREATED: 07 MAY 09:44
    2014

ETSI E2332/14 SPECIAL ACTIVITY AREA ESTABLISHED FOR SPINTRAINING,
    3NM RADIUS CENTERED AT PSN 484100N 0113300E, AT MANCHING
    MILITARY AIRBASE (5NM SW INGOLSTADT NDB IGL). GND - FL075,
    DAILY 0630-1100 AND 1130-1700, 06 OCT 06:30 2014 UNTIL 11
    OCT 17:00 2014. CREATED: 21 AUG 10:55 2014

ETSI P5327/14 AD ETSI: LVTO-PROCEDURE SUSPENDED. 25 AUG 14:58
    2014 UNTIL 21 NOV 10:00 2014. CREATED: 25 AUG 15:04 2014

ETSI P5328/14 AD ETSI: NO SRA POSSIBLE. 25 AUG 15:01 2014 UNTIL
    21 NOV 10:00 2014. CREATED: 25 AUG 15:05 2014

ETSI P5346/14 AD ETSI: PAR RWY25R/07L OUT OF SERVICE. 26 AUG
    06:15 2014 UNTIL 21 NOV 10:00 2014. CREATED: 26 AUG 06:19
    2014

ETSI P5761/14 AD ETSI: PAR RWY25L/07R OUT OF SERVICE. 09 SEP
    06:19 2014 UNTIL 02 OCT 15:00 2014. CREATED: 09 SEP 06:23
    2014

ETSI P5950/14 AD ETSI: AD CLSD (EXCEPT FOR SCHEDULED CIVIL AIR
    TRAFFIC AND MILITARY FLIGHTS WITH PPR). 23 SEP 07:00 2014
    UNTIL 23 SEP 11:00 2014. CREATED: 17 SEP 08:07 2014

ETSI P5952/14 AD ETSI: NO RADAR SERVICE. 23 SEP 07:00 2014 UNTIL
    23 SEP 11:00 2014. CREATED: 17 SEP 08:10 2014

ETSI P5976/14 AD ETSI: NO ALTERNATE FUNCTION. 18 SEP 14:00 2014
    UNTIL 23 SEP 07:00 2014. CREATED: 18 SEP 06:10 2014

ETSI P5980/14 AD ETSI: NO PRACTISE APCH. 18 SEP 14:00 2014 UNTIL
    23 SEP 07:00 2014. CREATED: 18 SEP 06:35 2014

ETSI P5982/14 AD ETSI: RWY07L NO APPROACH END ARRESTMENT. 18
    SEP 14:00 2014 UNTIL 23 SEP 07:00 2014. CREATED: 18 SEP 06:43
    2014

ETSI P5987/14 AD ETSI: 24HRS PPR. 18 SEP 14:00 2014 UNTIL 23
    SEP 07:00 2014. CREATED: 18 SEP 06:59 2014

ETSI P5992/14 AD ETSI: RWY25R/07L VFR ONLY. 23 SEP 07:00 2014
    UNTIL 28 NOV 13:00 2014. CREATED: 18 SEP 07:08 2014

ETSI P5995/14 AD ETSI: RWY25L/O7R CLOSED DUE TO CONSTRUCTION
    WORK. 18 SEP 14:00 2014 UNTIL 23 SEP 07:00 2014. CREATED:
    18 SEP 07:14 2014

---------------------------------------------------------------------------